Time;durP1;ratioP1;P1;durP2;ratioP2;P2;SDS_P1;SDS_P2;PMS_P1;PMS_P2;Temp;Humidity;BMP_temperature;BMP_pressure;BME280_temperature;BME280_humidity;BME280_pressure;Samples;Min_cycle;Max_cycle;Signal;HPM_P1;HPM_P2
2022/06/01 00:00:18;;;;;;;4.32;2.67;;;;;;;8.43;100.00;92946.19;2090198;28;20025;-84
2022/06/01 00:01:19;;;;;;;3.05;2.38;;;;;;;8.54;100.00;92940.66;2098085;28;20119;-85
2022/06/01 00:02:20;;;;;;;3.83;2.75;;;;;;;8.50;100.00;92935.41;2098248;28;20028;-82
2022/06/01 00:03:23;;;;;;;2.80;2.50;;;;;;;8.52;100.00;92943.75;2106920;28;20075;-86
2022/06/01 00:04:24;;;;;;;4.13;2.40;;;;;;;8.53;100.00;92941.84;2115263;28;20016;-82
2022/06/01 00:05:26;;;;;;;3.20;2.72;;;;;;;8.56;100.00;92933.03;2106633;28;20139;-84
2022/06/01 00:06:27;;;;;;;3.15;2.85;;;;;;;8.57;100.00;92942.53;2098598;28;20027;-82
2022/06/01 00:07:30;;;;;;;2.80;2.60;;;;;;;8.51;100.00;92942.22;2106708;28;20115;-84
2022/06/01 00:08:32;;;;;;;3.00;2.70;;;;;;;8.57;100.00;92943.28;2106758;28;20024;-83
2022/06/01 00:09:33;;;;;;;2.50;2.30;;;;;;;8.60;100.00;92944.38;2098547;28;20033;-83
2022/06/01 00:10:34;;;;;;;3.08;2.70;;;;;;;8.63;100.00;92940.16;2098139;28;20116;-83
2022/06/01 00:11:36;;;;;;;2.67;2.47;;;;;;;8.58;100.00;92941.38;2100470;28;20047;-82
2022/06/01 00:12:37;;;;;;;3.15;2.92;;;;;;;8.58;100.00;92944.78;2098161;28;20105;-84
2022/06/01 00:13:39;;;;;;;4.22;2.70;;;;;;;8.56;100.00;92941.03;2106523;28;20121;-86
2022/06/01 00:14:40;;;;;;;4.18;2.70;;;;;;;8.49;100.00;92944.56;2106574;28;20516;-82
2022/06/01 00:15:41;;;;;;;4.10;2.55;;;;;;;8.54;100.00;92941.41;2098131;28;20080;-83
2022/06/01 00:16:42;;;;;;;3.67;2.53;;;;;;;8.57;100.00;92940.63;2098301;28;20424;-81
2022/06/01 00:17:43;;;;;;;4.82;2.60;;;;;;;8.61;100.00;92947.81;2098341;28;20016;-86
2022/06/01 00:18:44;;;;;;;3.33;2.40;;;;;;;8.53;100.00;92942.59;2098311;28;20036;-84
2022/06/01 00:19:45;;;;;;;4.43;2.60;;;;;;;8.56;100.00;92935.72;2106481;28;20031;-85
2022/06/01 00:20:46;;;;;;;2.63;2.42;;;;;;;8.53;100.00;92939.91;2106598;28;20023;-85
2022/06/01 00:23:19;;;;;;;2.65;2.45;;;;;;;8.52;100.00;92940.34;2102389;28;20032;-85
2022/06/01 00:24:20;;;;;;;3.35;2.70;;;;;;;8.42;100.00;92935.94;2114875;28;20030;-82
2022/06/01 00:25:21;;;;;;;3.35;2.92;;;;;;;8.37;100.00;92929.16;2106321;28;20020;-85
2022/06/01 00:26:22;;;;;;;2.90;2.60;;;;;;;8.38;100.00;92932.56;2098086;28;20024;-86
2022/06/01 00:27:24;;;;;;;2.88;2.50;;;;;;;8.39;100.00;92931.44;2090076;28;20021;-85
2022/06/01 00:28:26;;;;;;;3.95;2.83;;;;;;;8.32;100.00;92930.34;2098253;28;20103;-84
2022/06/01 00:29:27;;;;;;;3.00;2.75;;;;;;;8.31;100.00;92939.50;2098223;28;20029;-83
2022/06/01 00:30:28;;;;;;;4.13;2.53;;;;;;;8.33;100.00;92928.44;2098298;28;20566;-84
2022/06/01 00:31:30;;;;;;;4.68;2.55;;;;;;;8.31;100.00;92933.41;2098097;28;20032;-86
2022/06/01 00:32:31;;;;;;;4.10;2.92;;;;;;;8.21;100.00;92931.66;2098265;28;20052;-84
2022/06/01 00:33:32;;;;;;;3.22;2.88;;;;;;;8.17;100.00;92923.00;2081776;28;20046;-83
2022/06/01 00:34:34;;;;;;;3.45;2.70;;;;;;;8.20;100.00;92925.59;2081631;28;20028;-82
2022/06/01 00:35:35;;;;;;;3.30;2.85;;;;;;;8.25;100.00;92925.16;2081692;28;20028;-82
2022/06/01 00:36:36;;;;;;;4.72;3.05;;;;;;;8.28;100.00;92929.66;2089812;28;20109;-82
2022/06/01 00:37:37;;;;;;;3.13;2.63;;;;;;;8.26;100.00;92931.97;2089792;28;20021;-82
2022/06/01 00:38:39;;;;;;;2.67;2.47;;;;;;;8.21;100.00;92921.00;2087135;28;20181;-86
2022/06/01 00:39:40;;;;;;;3.17;2.50;;;;;;;8.07;100.00;92922.72;2092271;28;20021;-81
2022/06/01 00:40:41;;;;;;;3.45;2.50;;;;;;;8.18;100.00;92932.50;2097988;28;20032;-82
2022/06/01 00:41:42;;;;;;;4.25;2.75;;;;;;;8.19;100.00;92931.31;2097723;28;20032;-85
2022/06/01 00:42:46;;;;;;;2.83;2.50;;;;;;;8.14;100.00;92929.13;2097865;28;20116;-84
2022/06/01 00:43:47;;;;;;;2.85;2.50;;;;;;;8.18;100.00;92929.81;2090524;28;20512;-84
2022/06/01 00:44:49;;;;;;;3.08;2.88;;;;;;;8.17;100.00;92923.00;2097688;28;20024;-81
2022/06/01 00:45:51;;;;;;;3.22;2.42;;;;;;;8.27;100.00;92932.72;2097693;28;20483;-86
2022/06/01 00:46:52;;;;;;;2.70;2.50;;;;;;;8.27;100.00;92928.16;2081340;28;20079;-84
2022/06/01 00:47:54;;;;;;;3.90;2.47;;;;;;;8.31;100.00;92928.09;2094038;28;20036;-84
2022/06/01 00:49:08;;;;;;;3.33;3.03;;;;;;;8.26;100.00;92928.56;2093144;28;20091;-82
2022/06/01 00:50:34;;;;;;;4.60;2.78;;;;;;;8.27;100.00;92930.06;2087278;28;20021;-83
2022/06/01 00:51:35;;;;;;;4.45;2.70;;;;;;;8.30;100.00;92927.34;2096448;28;20035;-83
2022/06/01 00:52:45;;;;;;;4.75;2.58;;;;;;;8.26;100.00;92920.56;2105960;28;20115;-81
2022/06/01 00:53:48;;;;;;;3.10;2.55;;;;;;;8.22;100.00;92922.53;2099791;28;20032;-82
2022/06/01 00:54:49;;;;;;;3.78;2.58;;;;;;;8.14;100.00;92921.88;2097926;28;20048;-84
2022/06/01 00:56:00;;;;;;;3.80;2.95;;;;;;;8.13;100.00;92915.06;2089596;28;20032;-87
2022/06/01 00:57:09;;;;;;;4.70;3.28;;;;;;;8.19;100.00;92915.34;2092413;28;20021;-85
2022/06/01 00:58:29;;;;;;;2.92;2.50;;;;;;;8.17;100.00;92917.69;2091834;28;20504;-84
2022/06/01 00:59:35;;;;;;;3.25;2.95;;;;;;;8.13;100.00;92914.31;2100643;28;20131;-82
2022/06/01 01:00:39;;;;;;;4.80;3.05;;;;;;;8.20;100.00;92919.50;2098370;28;20025;-82
2022/06/01 01:01:42;;;;;;;4.63;3.28;;;;;;;8.21;100.00;92921.00;2098583;28;20027;-84
2022/06/01 01:02:44;;;;;;;3.95;2.75;;;;;;;8.18;100.00;92917.25;2089918;28;20079;-85
2022/06/01 01:03:49;;;;;;;4.63;3.13;;;;;;;8.13;100.00;92914.31;2090194;28;20036;-84
2022/06/01 01:04:50;;;;;;;4.75;2.80;;;;;;;8.18;100.00;92919.19;2098312;28;20108;-85
2022/06/01 01:06:15;;;;;;;3.88;2.90;;;;;;;8.10;100.00;92917.78;2089513;28;20417;-82
2022/06/01 01:07:17;;;;;;;4.25;2.90;;;;;;;8.04;100.00;92914.81;2104198;28;20412;-82
2022/06/01 01:08:18;;;;;;;4.05;3.10;;;;;;;8.16;100.00;92918.81;2106214;28;20024;-85
2022/06/01 01:09:19;;;;;;;4.85;3.03;;;;;;;8.10;100.00;92912.47;2106290;28;20024;-85
2022/06/01 01:10:20;;;;;;;6.88;3.03;;;;;;;8.20;100.00;92908.84;2106038;28;20062;-86
2022/06/01 01:11:30;;;;;;;5.18;2.95;;;;;;;8.15;100.00;92909.31;2089680;28;20035;-85
2022/06/01 01:12:56;;;;;;;3.55;2.70;;;;;;;8.04;100.00;92912.91;2099012;28;20078;-86
2022/06/01 01:13:56;;;;;;;5.35;2.78;;;;;;;8.13;100.00;92916.97;2110385;27;20109;-83
2022/06/01 01:14:57;;;;;;;3.53;2.55;;;;;;;8.04;100.00;92920.91;2115053;27;20035;-85
2022/06/01 01:16:00;;;;;;;3.47;2.78;;;;;;;8.15;100.00;92918.06;2114454;28;20106;-86
2022/06/01 01:17:04;;;;;;;5.75;2.78;;;;;;;8.12;100.00;92918.13;2114706;28;20043;-82
2022/06/01 01:18:11;;;;;;;4.45;3.10;;;;;;;8.12;100.00;92918.13;2114947;28;20019;-83
2022/06/01 01:19:32;;;;;;;4.13;2.80;;;;;;;8.12;100.00;92905.59;2114445;28;20260;-85
2022/06/01 01:20:40;;;;;;;2.60;2.40;;;;;;;8.12;100.00;92907.47;2117283;27;20463;-83
2022/06/01 01:22:07;;;;;;;4.65;3.03;;;;;;;8.15;100.00;92910.06;2106910;28;20020;-83
2022/06/01 01:23:23;;;;;;;3.17;2.88;;;;;;;8.08;100.00;92907.53;2100563;28;20451;-83
2022/06/01 01:24:43;;;;;;;3.90;3.05;;;;;;;8.12;100.00;92907.47;2102073;28;20055;-82
2022/06/01 01:25:44;;;;;;;4.63;2.92;;;;;;;8.11;100.00;92906.72;2101966;28;20082;-83
2022/06/01 01:26:48;;;;;;;4.60;3.05;;;;;;;8.01;100.00;92899.66;2097666;28;20927;-82
2022/06/01 01:27:52;;;;;;;3.10;2.80;;;;;;;8.04;100.00;92904.94;2106504;28;20027;-86
2022/06/01 01:28:54;;;;;;;2.60;2.38;;;;;;;8.03;100.00;92902.66;2098739;28;20028;-84
2022/06/01 01:29:55;;;;;;;3.90;2.90;;;;;;;7.93;100.00;92911.56;2101493;28;20024;-82
2022/06/01 01:31:11;;;;;;;5.38;3.28;;;;;;;7.94;100.00;92908.50;2097590;28;20080;-82
2022/06/01 01:32:13;;;;;;;3.25;2.45;;;;;;;8.01;100.00;92908.41;2107961;28;20020;-84
2022/06/01 01:33:24;;;;;;;3.88;2.83;;;;;;;8.03;100.00;92911.41;2114413;28;20084;-82
2022/06/01 01:34:25;;;;;;;7.55;3.28;;;;;;;8.05;100.00;92913.66;2114358;28;20027;-83
2022/06/01 01:35:26;;;;;;;3.70;2.80;;;;;;;8.16;100.00;92910.81;2114341;28;20474;-83
2022/06/01 01:36:34;;;;;;;3.88;2.85;;;;;;;8.12;100.00;92910.13;2097421;28;20039;-85
2022/06/01 01:37:37;;;;;;;7.78;3.10;;;;;;;8.14;100.00;92913.16;2091532;28;21057;-82
2022/06/01 01:38:52;;;;;;;5.25;3.00;;;;;;;8.11;100.00;92911.28;2090779;28;20103;-83
2022/06/01 01:39:56;;;;;;;6.18;2.70;;;;;;;8.05;100.00;92911.00;2093488;28;20747;-83
2022/06/01 01:41:07;;;;;;;4.32;3.00;;;;;;;8.01;100.00;92919.03;2089826;28;20025;-82
2022/06/01 01:42:09;;;;;;;3.08;2.78;;;;;;;8.04;100.00;92909.50;2100538;28;20028;-81
2022/06/01 01:43:11;;;;;;;4.43;2.83;;;;;;;8.04;100.00;92912.91;2097581;28;20106;-84
2022/06/01 01:44:30;;;;;;;2.67;2.42;;;;;;;8.04;100.00;92915.56;2096738;28;20035;-83
2022/06/01 01:45:34;;;;;;;3.70;2.83;;;;;;;8.10;100.00;92912.47;2094176;28;20108;-82
2022/06/01 01:46:35;;;;;;;4.00;2.85;;;;;;;8.13;100.00;92916.97;2090057;28;20020;-85
2022/06/01 01:47:38;;;;;;;2.92;2.50;;;;;;;8.09;100.00;92917.03;2097552;28;20044;-86
2022/06/01 01:48:39;;;;;;;3.63;2.80;;;;;;;8.31;100.00;92920.09;2097685;28;20029;-83
2022/06/01 01:49:41;;;;;;;3.08;2.47;;;;;;;8.25;100.00;92922.47;2097601;28;20626;-81
2022/06/01 01:50:42;;;;;;;3.65;2.75;;;;;;;8.37;100.00;92913.16;2097512;28;20020;-84
2022/06/01 01:51:44;;;;;;;2.88;2.67;;;;;;;8.18;100.00;92917.25;2089259;28;20055;-85
2022/06/01 01:52:46;;;;;;;2.97;2.72;;;;;;;8.23;100.00;92916.78;2097847;28;20031;-82
2022/06/01 01:53:47;;;;;;;3.05;2.65;;;;;;;8.28;100.00;92912.91;2114152;28;20371;-84
2022/06/01 01:55:06;;;;;;;2.53;2.33;;;;;;;8.23;100.00;92911.47;2114087;28;20023;-82
2022/06/01 01:56:19;;;;;;;2.70;2.50;;;;;;;8.14;100.00;92918.47;2116951;27;20391;-84
2022/06/01 01:57:28;;;;;;;4.38;2.80;;;;;;;8.15;100.00;92912.00;2114229;28;20133;-85
2022/06/01 01:58:57;;;;;;;3.08;2.72;;;;;;;8.23;100.00;92916.78;2099644;28;20126;-84
2022/06/01 02:00:34;;;;;;;3.35;2.67;;;;;;;8.38;100.00;92920.00;2105602;28;20388;-83
2022/06/01 02:01:45;;;;;;;4.90;2.72;;;;;;;8.43;100.00;92908.91;2113397;27;20027;-84
2022/06/01 02:03:09;;;;;;;3.17;2.88;;;;;;;8.30;100.00;92918.59;2114129;28;20019;-86
2022/06/01 02:06:06;;;;;;;3.20;2.47;;;;;;;8.37;100.00;92915.84;2113300;27;20125;-82
2022/06/01 02:07:18;;;;;;;4.53;3.15;;;;;;;8.31;100.00;92907.53;2101331;28;20032;-82
2022/06/01 02:08:32;;;;;;;5.18;3.05;;;;;;;8.18;100.00;92903.19;2100434;28;20026;-83
2022/06/01 02:12:41;;;;;;;3.47;3.08;;;;;;;8.23;100.00;92908.06;2107673;28;20028;-83
2022/06/01 02:12:41;;;;;;;2.83;2.60;;;;;;;8.19;100.00;92902.78;2120009;27;20019;-84
2022/06/01 02:13:43;;;;;;;2.90;2.70;;;;;;;8.22;100.00;92901.22;2113892;28;20043;-85
2022/06/01 02:14:52;;;;;;;3.67;3.17;;;;;;;8.48;100.00;92903.09;2114352;28;20035;-83
2022/06/01 02:15:57;;;;;;;3.67;2.78;;;;;;;8.33;100.00;92909.78;2107042;28;20024;-83
2022/06/01 02:17:06;;;;;;;3.30;3.00;;;;;;;8.27;100.00;92909.50;2106797;28;20027;-84
2022/06/01 02:18:16;;;;;;;3.92;2.97;;;;;;;8.12;100.00;92907.47;2100374;28;20025;-84
2022/06/01 02:19:20;;;;;;;;;;;;;;;8.03;100.00;92903.44;2107721;28;20526;-82
2022/06/01 02:20:28;;;;;;;4.50;2.58;;;;;;;7.99;100.00;92894.75;2097871;28;19918;-82
2022/06/01 02:21:42;;;;;;;3.22;2.45;;;;;;;7.96;100.00;92897.47;2098310;28;20024;-83
2022/06/01 02:22:43;;;;;;;3.60;3.10;;;;;;;7.88;100.00;92902.13;2099316;28;20510;-84
2022/06/01 02:23:47;;;;;;;3.28;2.83;;;;;;;7.91;100.00;92905.91;2089178;28;20391;-81
2022/06/01 02:24:48;;;;;;;3.53;3.05;;;;;;;7.92;100.00;92902.84;2092703;28;20024;-86
2022/06/01 02:25:50;;;;;;;3.17;2.88;;;;;;;7.96;100.00;92902.78;2114154;28;20127;-83
2022/06/01 02:26:54;;;;;;;3.08;2.83;;;;;;;7.84;100.00;92904.09;2106015;28;20803;-82
2022/06/01 02:27:58;;;;;;;5.55;3.10;;;;;;;7.78;100.00;92903.81;2114462;28;20488;-82
2022/06/01 02:29:22;;;;;;;4.55;3.15;;;;;;;7.75;100.00;92891.28;2114638;28;20035;-83
2022/06/01 02:30:33;;;;;;;4.13;3.05;;;;;;;7.85;100.00;92902.94;2108750;28;20077;-86
2022/06/01 02:31:35;;;;;;;3.47;2.90;;;;;;;7.99;100.00;92894.75;2100100;28;20021;-85
2022/06/01 02:32:38;;;;;;;2.97;2.63;;;;;;;7.85;100.00;92902.94;2097647;28;20037;-84
2022/06/01 02:33:41;;;;;;;3.58;2.88;;;;;;;7.82;100.00;92899.19;2098108;28;20108;-85
2022/06/01 02:34:44;;;;;;;2.97;2.78;;;;;;;7.73;100.00;92904.25;2097876;28;20108;-83
2022/06/01 02:35:51;;;;;;;3.83;3.20;;;;;;;7.72;100.00;92896.66;2106382;28;20031;-85
2022/06/01 02:36:52;;;;;;;2.95;2.63;;;;;;;7.72;100.00;92907.31;2106336;28;20028;-86
2022/06/01 02:37:57;;;;;;;6.15;3.13;;;;;;;7.69;100.00;92903.56;2097421;28;20028;-82
2022/06/01 02:39:02;;;;;;;3.72;3.00;;;;;;;7.66;100.00;92911.59;2098436;28;20052;-84
2022/06/01 02:40:08;;;;;;;2.97;2.75;;;;;;;7.65;100.00;92905.50;2098483;28;20556;-84
2022/06/01 02:42:25;;;;;;;5.07;3.13;;;;;;;7.70;100.00;92909.63;2098473;28;20054;-84
2022/06/01 02:42:31;;;;;;;3.38;2.75;;;;;;;7.51;100.00;92903.81;2111395;28;20088;-84
2022/06/01 02:43:48;;;;;;;3.40;3.10;;;;;;;7.71;100.00;92903.91;2122412;28;20110;-85
2022/06/01 02:44:49;;;;;;;3.50;2.80;;;;;;;7.64;100.00;92912.00;2107825;28;20016;-84
2022/06/01 02:45:50;;;;;;;3.10;2.67;;;;;;;7.60;100.00;92910.53;2114079;28;20059;-82
2022/06/01 02:46:51;;;;;;;4.35;3.03;;;;;;;7.53;100.00;92901.47;2114005;28;20051;-82
2022/06/01 02:47:55;;;;;;;3.30;3.00;;;;;;;7.62;100.00;92903.66;2105711;28;20111;-85
2022/06/01 02:48:57;;;;;;;4.53;2.72;;;;;;;7.71;100.00;92900.47;2105960;28;20046;-84
2022/06/01 02:50:00;;;;;;;3.40;3.10;;;;;;;7.63;100.00;92905.16;2097814;28;20498;-84
2022/06/01 02:51:02;;;;;;;3.88;3.00;;;;;;;7.67;100.00;92908.50;2106016;28;20024;-83
2022/06/01 02:52:05;;;;;;;3.28;2.95;;;;;;;7.60;100.00;92913.19;2105795;28;20115;-86
2022/06/01 02:53:08;;;;;;;2.90;2.58;;;;;;;7.62;100.00;92911.63;2097899;28;20029;-82
2022/06/01 02:54:10;;;;;;;3.45;3.15;;;;;;;7.63;100.00;92909.72;2105760;28;20107;-83
2022/06/01 02:55:13;;;;;;;3.72;3.42;;;;;;;7.60;100.00;92910.53;2105496;28;20032;-82
2022/06/01 02:56:14;;;;;;;3.00;2.70;;;;;;;7.60;100.00;92916.59;2105537;28;20020;-84
2022/06/01 02:57:16;;;;;;;3.17;2.92;;;;;;;7.67;100.00;92911.16;2092313;28;20032;-85
2022/06/01 02:58:18;;;;;;;4.60;3.28;;;;;;;7.66;100.00;92907.00;2097390;28;20078;-84
2022/06/01 02:59:19;;;;;;;3.00;2.80;;;;;;;7.72;100.00;92916.03;2089004;28;20035;-85
2022/06/01 03:00:29;;;;;;;3.72;2.58;;;;;;;7.92;100.00;92902.84;2105679;28;20027;-83
2022/06/01 03:01:30;;;;;;;;;;;;;;;7.97;100.00;92902.38;2114484;28;20030;-83
2022/06/01 03:02:33;;;;;;;3.20;2.78;;;;;;;7.81;100.00;92905.66;2097317;28;19935;-85
2022/06/01 03:03:35;;;;;;;4.68;2.38;;;;;;;7.83;100.00;92905.25;2097621;28;20047;-84
2022/06/01 03:04:38;;;;;;;3.17;2.72;;;;;;;7.91;100.00;92909.31;2089228;28;20111;-81
2022/06/01 03:05:40;;;;;;;2.88;2.67;;;;;;;7.77;100.00;92904.19;2097754;28;20029;-82
2022/06/01 03:06:42;;;;;;;3.08;2.70;;;;;;;7.64;100.00;92904.00;2105653;28;20031;-82
2022/06/01 03:07:44;;;;;;;5.97;2.80;;;;;;;7.50;100.00;92904.19;2097078;28;20020;-86
2022/06/01 03:08:45;;;;;;;5.07;2.90;;;;;;;7.45;100.00;92905.38;2105931;28;20024;-83
2022/06/01 03:09:46;;;;;;;3.72;2.90;;;;;;;7.50;100.00;92904.19;2105511;28;20020;-86
2022/06/01 03:10:48;;;;;;;3.22;2.50;;;;;;;7.39;100.00;92908.91;2097071;28;20378;-84
2022/06/01 03:11:49;;;;;;;3.00;2.70;;;;;;;7.46;100.00;92900.81;2088964;28;20035;-83
2022/06/01 03:12:50;;;;;;;2.90;2.58;;;;;;;7.34;100.00;92902.13;2105676;28;20032;-84
2022/06/01 03:13:51;;;;;;;3.55;2.85;;;;;;;7.30;100.00;92901.44;2105253;28;20070;-83
2022/06/01 03:14:52;;;;;;;3.47;2.70;;;;;;;7.32;100.00;92904.44;2097263;28;20028;-82
2022/06/01 03:15:54;;;;;;;4.50;2.70;;;;;;;7.24;100.00;92911.75;2097100;28;20025;-84
2022/06/01 03:16:58;;;;;;;3.20;3.00;;;;;;;7.13;100.00;92908.47;2089772;28;20047;-83
2022/06/01 03:18:00;;;;;;;3.65;2.50;;;;;;;7.13;100.00;92910.38;2091242;28;20021;-84
2022/06/01 03:19:02;;;;;;;3.67;2.65;;;;;;;7.02;100.00;92908.59;2098927;28;20119;-85
2022/06/01 03:20:08;;;;;;;2.63;2.42;;;;;;;7.03;100.00;92910.09;2098704;28;20028;-83
2022/06/01 03:21:10;;;;;;;3.47;2.53;;;;;;;7.01;100.00;92912.38;2091750;28;20048;-84
2022/06/01 03:22:12;;;;;;;3.03;2.50;;;;;;;7.06;100.00;92908.53;2098862;28;20020;-83
2022/06/01 03:23:14;;;;;;;5.03;2.90;;;;;;;7.04;100.00;92910.84;2098684;28;20028;-82
2022/06/01 03:24:15;;;;;;;3.00;2.67;;;;;;;7.00;100.00;92910.88;2090888;28;20065;-82
2022/06/01 03:25:19;;;;;;;5.32;2.97;;;;;;;6.96;100.00;92912.09;2097179;28;20016;-84
2022/06/01 03:26:20;;;;;;;3.20;2.88;;;;;;;7.02;100.00;92911.25;2099475;28;20028;-82
2022/06/01 03:27:22;;;;;;;6.03;3.00;;;;;;;7.06;100.00;92905.88;2098602;28;20489;-85
2022/06/01 03:28:23;;;;;;;3.13;2.83;;;;;;;7.03;100.00;92914.66;2098936;28;20134;-83
2022/06/01 03:29:24;;;;;;;3.20;2.97;;;;;;;7.04;100.00;92908.94;2107022;28;20020;-81
2022/06/01 03:30:28;;;;;;;4.60;2.85;;;;;;;7.06;100.00;92909.28;2106903;28;20103;-83
2022/06/01 03:31:29;;;;;;;3.20;2.90;;;;;;;6.96;100.00;92912.84;2102018;28;20023;-83
2022/06/01 03:32:30;;;;;;;3.40;3.10;;;;;;;6.92;100.00;92909.47;2095607;28;20530;-84
2022/06/01 03:33:32;;;;;;;2.90;2.70;;;;;;;6.95;100.00;92907.94;2105687;28;20024;-85
2022/06/01 03:34:33;;;;;;;3.47;3.17;;;;;;;6.88;100.00;92903.44;2096151;28;20039;-81
2022/06/01 03:35:36;;;;;;;3.25;2.95;;;;;;;6.84;100.00;92908.03;2106834;28;20427;-82
2022/06/01 03:36:38;;;;;;;3.42;3.13;;;;;;;6.86;100.00;92905.00;2115622;28;20019;-81
2022/06/01 03:37:38;;;;;;;3.45;3.22;;;;;;;7.07;100.00;92905.50;2106945;28;20071;-82
2022/06/01 03:38:40;;;;;;;3.10;2.80;;;;;;;6.97;100.00;92910.94;2103662;28;20028;-82
2022/06/01 03:39:41;;;;;;;3.03;2.83;;;;;;;6.91;100.00;92913.28;2098638;28;20020;-83
2022/06/01 03:40:42;;;;;;;3.33;3.03;;;;;;;6.84;100.00;92908.03;2098478;28;20031;-84
2022/06/01 03:41:43;;;;;;;4.05;2.70;;;;;;;6.89;100.00;92912.94;2098641;28;20105;-85
2022/06/01 03:42:45;;;;;;;3.08;2.88;;;;;;;6.84;100.00;92918.66;2106825;28;20020;-84
2022/06/01 03:45:58;;;;;;;3.33;3.13;;;;;;;6.77;100.00;92914.19;2089426;28;20110;-82
2022/06/01 03:47:02;;;;;;;4.65;2.83;;;;;;;6.80;100.00;92908.09;2092143;28;20040;-83
2022/06/01 03:48:06;;;;;;;4.75;3.45;;;;;;;6.96;100.00;92915.50;2089319;28;20128;-82
2022/06/01 03:49:08;;;;;;;2.97;2.60;;;;;;;6.80;100.00;92913.41;2074102;28;20033;-82
2022/06/01 03:50:12;;;;;;;3.15;2.90;;;;;;;6.69;100.00;92910.09;2081550;28;20198;-81
2022/06/01 03:51:13;;;;;;;4.00;2.95;;;;;;;6.74;100.00;92917.63;2096534;27;20040;-82
2022/06/01 03:52:14;;;;;;;3.03;2.72;;;;;;;6.78;100.00;92917.59;2106810;28;20020;-82
2022/06/01 03:53:15;;;;;;;4.45;2.90;;;;;;;6.75;100.00;92905.84;2106893;28;20492;-83
2022/06/01 03:54:16;;;;;;;3.60;3.03;;;;;;;6.78;100.00;92912.28;2106813;28;20706;-84
2022/06/01 03:55:19;;;;;;;3.90;2.90;;;;;;;6.81;100.00;92914.91;2101779;28;20027;-83
2022/06/01 03:56:22;;;;;;;4.00;3.00;;;;;;;6.80;100.00;92915.28;2098828;28;20508;-85
2022/06/01 03:57:23;;;;;;;4.70;3.15;;;;;;;6.79;100.00;92914.53;2107134;28;20827;-82
2022/06/01 03:58:25;;;;;;;3.08;2.85;;;;;;;6.85;100.00;92908.78;2098340;28;20178;-81
2022/06/01 03:59:26;;;;;;;3.92;2.80;;;;;;;6.86;100.00;92913.72;2098602;28;20077;-85
2022/06/01 04:00:28;;;;;;;3.65;2.70;;;;;;;6.69;100.00;92912.75;2098331;28;20035;-82
2022/06/01 04:01:29;;;;;;;3.60;2.72;;;;;;;6.78;100.00;92909.63;2101369;28;20028;-83
2022/06/01 04:02:30;;;;;;;4.05;2.88;;;;;;;6.67;100.00;92916.94;2098338;28;20020;-83
2022/06/01 04:03:31;;;;;;;2.65;2.45;;;;;;;6.66;100.00;92912.78;2098399;28;20020;-86
2022/06/01 04:04:34;;;;;;;4.80;3.00;;;;;;;6.82;100.00;92913.00;2098075;28;20012;-82
2022/06/01 04:05:35;;;;;;;3.88;2.47;;;;;;;6.96;100.00;92910.19;2090505;28;20028;-84
2022/06/01 04:06:36;;;;;;;3.33;3.05;;;;;;;6.90;100.00;92908.38;2090143;28;20044;-85
2022/06/01 04:07:37;;;;;;;2.88;2.60;;;;;;;6.77;100.00;92916.09;2104680;28;20020;-85
2022/06/01 04:08:38;;;;;;;2.95;2.75;;;;;;;6.73;100.00;92913.47;2100338;28;20055;-84
2022/06/01 04:09:39;;;;;;;3.05;2.63;;;;;;;6.73;100.00;92912.72;2115138;28;20053;-83
2022/06/01 04:10:45;;;;;;;3.17;2.90;;;;;;;6.76;100.00;92918.00;2114988;28;20049;-82
2022/06/01 04:11:46;;;;;;;3.60;2.80;;;;;;;6.60;100.00;92917.78;2098878;28;20021;-81
2022/06/01 04:12:48;;;;;;;3.88;3.10;;;;;;;6.63;100.00;92914.34;2098273;28;20397;-84
2022/06/01 04:13:49;;;;;;;3.50;3.25;;;;;;;6.66;100.00;92912.78;2098022;28;20672;-82
2022/06/01 04:14:50;;;;;;;4.35;2.83;;;;;;;6.63;100.00;92921.53;2093782;28;20056;-84
2022/06/01 04:15:52;;;;;;;5.00;3.00;;;;;;;6.67;100.00;92917.72;2090108;28;20381;-82
2022/06/01 04:16:53;;;;;;;3.30;2.88;;;;;;;6.65;100.00;92922.66;2106494;28;20024;-82
2022/06/01 04:17:54;;;;;;;3.40;3.10;;;;;;;6.66;100.00;92924.16;2090208;28;20119;-84
2022/06/01 04:18:55;;;;;;;3.47;3.15;;;;;;;6.61;100.00;92916.63;2098417;28;20034;-84
2022/06/01 04:19:59;;;;;;;3.20;3.00;;;;;;;6.53;100.00;92921.25;2106574;28;20023;-86
2022/06/01 04:21:00;;;;;;;6.70;3.53;;;;;;;6.69;100.00;92917.31;2115004;28;20103;-84
2022/06/01 04:22:01;;;;;;;4.15;3.50;;;;;;;6.65;100.00;92917.34;2115031;28;20019;-85
2022/06/01 04:23:02;;;;;;;4.10;3.47;;;;;;;6.69;100.00;92928.69;2098275;28;20484;-84
2022/06/01 04:24:05;;;;;;;3.85;2.95;;;;;;;6.70;100.00;92922.22;2098513;28;20036;-82
2022/06/01 04:25:08;;;;;;;3.10;2.90;;;;;;;6.74;100.00;92922.94;2109969;27;20028;-83
2022/06/01 04:26:10;;;;;;;3.13;2.90;;;;;;;6.80;100.00;92925.91;2106328;28;20035;-84
2022/06/01 04:27:11;;;;;;;3.33;3.10;;;;;;;6.74;100.00;92930.91;2098298;28;20528;-85
2022/06/01 04:28:12;;;;;;;4.85;3.90;;;;;;;6.82;100.00;92932.34;2113218;28;20027;-86
2022/06/01 04:29:15;;;;;;;3.35;2.80;;;;;;;6.81;100.00;92927.44;2115018;28;20015;-83
2022/06/01 04:30:18;;;;;;;4.50;3.10;;;;;;;6.86;100.00;92927.00;2106799;28;20031;-83
2022/06/01 04:31:20;;;;;;;3.78;3.17;;;;;;;6.88;100.00;92931.91;2098732;28;20028;-84
2022/06/01 04:32:33;;;;;;;3.92;2.90;;;;;;;7.01;100.00;92928.34;2098432;28;20461;-83
2022/06/01 04:33:43;;;;;;;3.88;2.88;;;;;;;6.96;100.00;92922.72;2101678;28;20074;-83
2022/06/01 04:34:44;;;;;;;3.25;2.95;;;;;;;6.86;100.00;92932.31;2108784;27;20042;-82
2022/06/01 04:35:45;;;;;;;3.50;2.72;;;;;;;6.99;100.00;92935.22;2106472;28;20059;-82
2022/06/01 04:36:46;;;;;;;3.50;2.78;;;;;;;6.99;100.00;92925.34;2098084;28;20128;-84
2022/06/01 04:37:48;;;;;;;3.25;2.95;;;;;;;7.03;100.00;92925.31;2106501;28;20024;-82
2022/06/01 04:38:49;;;;;;;3.22;2.70;;;;;;;6.99;100.00;92925.34;2106392;28;20044;-83
2022/06/01 04:39:50;;;;;;;4.50;2.95;;;;;;;6.97;100.00;92930.28;2106581;28;20020;-81
2022/06/01 04:40:53;;;;;;;3.28;3.00;;;;;;;7.03;100.00;92920.00;2097836;28;20031;-82
2022/06/01 04:41:54;;;;;;;3.15;2.90;;;;;;;7.09;100.00;92928.25;2098338;28;20055;-84
2022/06/01 04:42:54;;;;;;;4.70;3.10;;;;;;;7.11;100.00;92925.94;2098145;28;20508;-84
2022/06/01 04:43:56;;;;;;;5.53;3.38;;;;;;;7.08;100.00;92932.81;2106157;28;20024;-83
2022/06/01 04:44:56;;;;;;;3.70;3.05;;;;;;;7.16;100.00;92928.19;2102530;28;20027;-83
2022/06/01 04:45:58;;;;;;;5.78;3.25;;;;;;;7.14;100.00;92930.47;2114550;28;20020;-82
2022/06/01 04:47:00;;;;;;;5.72;3.30;;;;;;;7.25;100.00;92925.81;2089836;28;20493;-84
2022/06/01 04:48:01;;;;;;;2.92;2.72;;;;;;;7.25;100.00;92931.13;2090909;28;20123;-84
2022/06/01 04:49:02;;;;;;;3.42;3.13;;;;;;;7.44;100.00;92937.72;2097455;28;20025;-84
2022/06/01 04:50:05;;;;;;;4.43;3.45;;;;;;;7.49;100.00;92932.69;2100188;28;20031;-85
2022/06/01 04:51:06;;;;;;;3.40;3.10;;;;;;;7.51;100.00;92925.09;2103729;28;20038;-84
2022/06/01 04:52:10;;;;;;;3.53;3.25;;;;;;;7.47;100.00;92928.94;2107768;28;20034;-83
2022/06/01 04:53:16;;;;;;;4.35;3.30;;;;;;;7.55;100.00;92919.69;2121136;27;20518;-83
2022/06/01 04:54:18;;;;;;;3.88;3.10;;;;;;;7.54;100.00;92928.84;2107130;28;20377;-80
2022/06/01 04:55:19;;;;;;;4.10;3.00;;;;;;;7.59;100.00;92925.72;2098152;28;20044;-83
2022/06/01 04:56:20;;;;;;;4.18;3.50;;;;;;;7.53;100.00;92930.75;2106060;28;20024;-85
2022/06/01 04:57:22;;;;;;;3.55;3.10;;;;;;;7.73;100.00;92925.53;2114726;28;20414;-84
2022/06/01 04:58:24;;;;;;;3.65;3.35;;;;;;;7.65;100.00;92916.16;2106181;28;20046;-82
2022/06/01 04:59:25;;;;;;;4.03;2.97;;;;;;;7.63;100.00;92926.44;2101830;28;20024;-83
2022/06/01 05:00:26;;;;;;;4.95;3.25;;;;;;;7.70;100.00;92929.00;2096154;28;20078;-81
2022/06/01 05:01:27;;;;;;;3.45;3.15;;;;;;;7.73;100.00;92920.22;2093708;28;20020;-82
2022/06/01 05:02:28;;;;;;;8.88;3.25;;;;;;;7.93;100.00;92917.63;2107197;28;20109;-85
2022/06/01 05:03:29;;;;;;;5.78;3.03;;;;;;;7.92;100.00;92921.47;2106074;28;20051;-82
2022/06/01 05:04:31;;;;;;;3.65;3.35;;;;;;;7.85;100.00;92920.81;2107413;28;20016;-83
2022/06/01 05:05:35;;;;;;;4.47;3.63;;;;;;;7.85;100.00;92920.81;2095868;28;20032;-83
2022/06/01 05:06:37;;;;;;;4.22;3.53;;;;;;;7.86;100.00;92923.09;2087961;28;20027;-82
2022/06/01 05:07:38;;;;;;;5.00;3.25;;;;;;;7.87;100.00;92921.91;2088369;28;20114;-82
2022/06/01 05:08:39;;;;;;;4.32;3.30;;;;;;;7.86;100.00;92925.75;2096552;28;20020;-83